Time;durP1;ratioP1;P1;durP2;ratioP2;P2;SDS_P1;SDS_P2;PMS_P1;PMS_P2;Temp;Humidity;BMP_temperature;BMP_pressure;BME280_temperature;BME280_humidity;BME280_pressure;Samples;Min_cycle;Max_cycle;Signal;HPM_P1;HPM_P2
2023/08/01 00:01:22;;;;;;;9.82;5.15;;;;;;;17.55;100.00;100166.88;4965667;28;20101;-72
2023/08/01 00:03:56;;;;;;;7.70;5.22;;;;;;;17.55;100.00;100166.88;4971782;28;20046;-72
2023/08/01 00:06:49;;;;;;;7.03;4.15;;;;;;;17.55;100.00;100166.88;4984458;28;20100;-72
2023/08/01 00:10:16;;;;;;;8.30;5.40;;;;;;;-145.50;100.00;65435.88;4978599;28;20617;-72
2023/08/01 00:12:42;;;;;;;10.98;6.10;;;;;;;17.55;100.00;100166.88;4983189;28;20246;-72
2023/08/01 00:16:07;;;;;;;10.40;5.68;;;;;;;-145.50;100.00;65435.88;4969071;28;20089;-71
2023/08/01 00:19:33;;;;;;;11.40;6.20;;;;;;;-145.50;100.00;65435.88;4979089;28;20064;-71
2023/08/01 00:22:59;;;;;;;10.13;6.13;;;;;;;-145.50;100.00;65435.88;4962927;28;20507;-72
2023/08/01 00:26:24;;;;;;;10.02;6.50;;;;;;;-145.50;100.00;65435.88;4984736;28;20059;-72
2023/08/01 00:29:49;;;;;;;10.05;6.50;;;;;;;-145.50;100.00;65435.88;4978669;28;20085;-71
2023/08/01 00:32:19;;;;;;;9.52;6.00;;;;;;;17.55;100.00;100166.88;4973797;28;20471;-71
2023/08/01 00:35:52;;;;;;;7.88;5.68;;;;;;;-145.50;100.00;65435.88;4983351;28;20054;-71
2023/08/01 00:38:19;;;;;;;8.43;4.80;;;;;;;17.55;100.00;100166.88;4979607;28;20050;-72
2023/08/01 00:41:44;;;;;;;9.23;4.55;;;;;;;-145.50;100.00;65435.88;4981719;28;20077;-72
2023/08/01 00:45:09;;;;;;;9.15;4.22;;;;;;;-145.50;100.00;65435.88;4971517;28;20503;-72
2023/08/01 00:48:35;;;;;;;5.18;3.22;;;;;;;-145.50;100.00;65435.88;4964660;28;20105;-71
2023/08/01 00:52:02;;;;;;;7.85;3.42;;;;;;;-145.50;100.00;65435.88;4976820;28;20121;-71
2023/08/01 00:55:29;;;;;;;9.07;3.72;;;;;;;-145.50;100.00;65435.88;4980897;28;20399;-71
2023/08/01 00:58:54;;;;;;;9.10;4.47;;;;;;;-145.50;100.00;65435.88;4968260;28;20121;-71
2023/08/01 01:01:38;;;;;;;6.28;3.15;;;;;;;17.55;100.00;100166.88;4976848;28;20422;-71
2023/08/01 01:05:05;;;;;;;8.30;3.45;;;;;;;-145.50;100.00;65435.88;4983825;28;20606;-71
2023/08/01 01:08:30;;;;;;;7.28;3.78;;;;;;;-145.50;100.00;65435.88;4977824;28;20133;-72
2023/08/01 01:11:55;;;;;;;7.40;3.38;;;;;;;-145.50;100.00;65435.88;4980388;28;20097;-71
2023/08/01 01:15:20;;;;;;;7.10;3.47;;;;;;;-145.50;100.00;65435.88;4979182;28;20061;-72
2023/08/01 01:18:45;;;;;;;11.60;3.20;;;;;;;-145.50;100.00;65435.88;4986853;28;20471;-71
2023/08/01 01:22:10;;;;;;;7.53;3.38;;;;;;;-145.50;100.00;65435.88;4966955;28;20589;-72
2023/08/01 01:24:57;;;;;;;6.40;3.13;;;;;;;17.55;100.00;100166.88;4978254;28;20455;-71
2023/08/01 01:28:07;;;;;;;8.18;3.22;;;;;;;17.55;100.00;100166.88;4981124;28;20317;-71
2023/08/01 01:30:39;;;;;;;7.15;3.67;;;;;;;17.55;100.00;100166.88;4960993;28;20414;-71
2023/08/01 01:33:16;;;;;;;8.63;3.80;;;;;;;17.55;100.00;100166.88;4987921;28;20137;-71
2023/08/01 01:35:49;;;;;;;8.65;4.18;;;;;;;17.55;100.00;100166.88;4977977;28;20728;-71
2023/08/01 01:38:20;;;;;;;10.45;3.72;;;;;;;17.55;100.00;100166.88;4986356;28;20050;-71
2023/08/01 01:40:48;;;;;;;11.65;4.38;;;;;;;17.55;100.00;100166.88;4969582;28;20105;-71
2023/08/01 01:43:22;;;;;;;9.18;4.13;;;;;;;17.55;100.00;100166.88;4980635;28;20046;-71
2023/08/01 01:45:49;;;;;;;9.50;4.60;;;;;;;17.55;100.00;100166.88;4961874;28;20047;-71
2023/08/01 01:48:16;;;;;;;8.65;5.05;;;;;;;17.55;100.00;100166.88;4979693;28;20053;-71
2023/08/01 01:50:46;;;;;;;9.20;5.53;;;;;;;17.55;100.00;100166.88;4986163;28;20492;-71
2023/08/01 01:54:11;;;;;;;10.18;5.20;;;;;;;-145.50;100.00;65435.88;4976668;28;20096;-72
2023/08/01 01:56:38;;;;;;;8.52;4.97;;;;;;;17.55;100.00;100166.88;4985160;28;20046;-72
2023/08/01 01:59:05;;;;;;;10.85;4.00;;;;;;;17.55;100.00;100166.88;4979387;28;20058;-72
2023/08/01 02:01:32;;;;;;;22.10;5.18;;;;;;;16.78;100.00;99713.69;4987802;28;20125;-71
2023/08/01 02:03:58;;;;;;;12.60;5.53;;;;;;;-145.50;100.00;65435.88;4981144;28;20050;-71
2023/08/01 02:06:26;;;;;;;8.85;4.05;;;;;;;16.78;100.00;99713.69;4982150;28;20625;-71
2023/08/01 02:08:54;;;;;;;11.20;4.20;;;;;;;16.78;100.00;99713.69;4983287;28;20050;-72
2023/08/01 02:11:21;;;;;;;11.23;4.28;;;;;;;16.78;100.00;99713.69;4979652;28;20050;-71
2023/08/01 02:13:49;;;;;;;11.70;4.40;;;;;;;16.78;100.00;99713.69;4969115;28;20582;-72
2023/08/01 02:16:17;;;;;;;11.75;5.13;;;;;;;16.78;100.00;99713.69;4980097;28;20085;-72
2023/08/01 02:18:43;;;;;;;14.45;4.70;;;;;;;16.78;100.00;99713.69;4986087;28;20495;-72
2023/08/01 02:21:10;;;;;;;11.20;5.40;;;;;;;-145.50;100.00;65435.88;4979761;28;20124;-71
2023/08/01 02:23:37;;;;;;;11.30;4.82;;;;;;;-145.50;100.00;65435.88;4978230;28;20105;-71
2023/08/01 02:26:04;;;;;;;11.27;4.60;;;;;;;-145.50;100.00;65435.88;4984452;28;20057;-71
2023/08/01 02:29:06;;;;;;;11.32;5.15;;;;;;;16.78;100.00;99713.69;4980211;28;20054;-72
2023/08/01 02:31:35;;;;;;;11.13;5.22;;;;;;;16.78;100.00;99713.69;4986623;28;20050;-72
2023/08/01 02:34:02;;;;;;;14.10;5.47;;;;;;;-145.50;100.00;65435.88;4955575;28;20913;-71
2023/08/01 02:36:28;;;;;;;8.35;4.88;;;;;;;-145.50;100.00;65435.88;4952896;28;20109;-72
2023/08/01 02:39:50;;;;;;;12.95;5.68;;;;;;;-145.50;100.00;65435.88;4979479;28;20050;-72
2023/08/01 02:42:43;;;;;;;11.57;5.63;;;;;;;16.78;100.00;99713.69;4985800;28;20499;-71
2023/08/01 02:46:05;;;;;;;13.00;5.88;;;;;;;-145.50;100.00;65435.88;4980434;28;20058;-72
2023/08/01 02:49:30;;;;;;;13.45;5.93;;;;;;;-145.50;100.00;65435.88;4982687;28;20101;-72
2023/08/01 02:52:55;;;;;;;15.95;6.47;;;;;;;-145.50;100.00;65435.88;4974618;28;20050;-71
2023/08/01 02:55:48;;;;;;;14.27;6.07;;;;;;;-145.50;100.00;65435.88;4986858;28;20105;-72
2023/08/01 02:59:10;;;;;;;14.63;6.30;;;;;;;-145.50;100.00;65435.88;4984408;28;20050;-72
2023/08/01 03:01:38;;;;;;;13.07;6.00;;;;;;;16.08;100.00;99709.16;4980975;28;20108;-71
2023/08/01 03:04:06;;;;;;;16.52;6.40;;;;;;;-145.50;100.00;65435.88;4978132;28;20104;-71
2023/08/01 03:06:46;;;;;;;16.67;6.32;;;;;;;-145.50;100.00;65435.88;4978753;28;20124;-71
2023/08/01 03:09:55;;;;;;;15.07;5.90;;;;;;;-145.50;100.00;65435.88;4975085;28;20046;-72
2023/08/01 03:13:20;;;;;;;14.15;5.78;;;;;;;-145.50;0.00;65435.88;4986610;28;20566;-72
2023/08/01 03:15:47;;;;;;;14.27;6.07;;;;;;;-145.50;100.00;65435.88;4984931;28;20089;-72
2023/08/01 03:18:13;;;;;;;14.43;5.80;;;;;;;-145.50;100.00;65435.88;4979110;28;20057;-72
2023/08/01 03:20:40;;;;;;;19.70;6.18;;;;;;;-145.50;100.00;65435.88;4973715;28;20046;-72
2023/08/01 03:23:06;;;;;;;17.42;7.18;;;;;;;-145.50;100.00;65435.88;4984505;28;20192;-72
2023/08/01 03:25:33;;;;;;;13.43;5.70;;;;;;;-145.50;100.00;65435.88;4977706;28;20113;-72
2023/08/01 03:27:59;;;;;;;16.02;6.07;;;;;;;-145.50;100.00;65435.88;4982365;28;20063;-72
2023/08/01 03:30:26;;;;;;;17.40;6.22;;;;;;;-145.50;100.00;65435.88;4978804;28;20050;-72
2023/08/01 03:32:52;;;;;;;13.35;6.45;;;;;;;-145.50;100.00;65435.88;4977943;28;20141;-72
2023/08/01 03:35:19;;;;;;;24.58;6.80;;;;;;;-145.50;100.00;65435.88;4982473;28;20089;-72
2023/08/01 03:37:45;;;;;;;17.35;6.82;;;;;;;-145.50;100.00;65435.88;4958783;28;20050;-72
2023/08/01 03:40:12;;;;;;;18.83;6.18;;;;;;;-145.50;100.00;65435.88;4967795;28;20069;-72
2023/08/01 03:42:40;;;;;;;16.55;6.53;;;;;;;-145.50;100.00;65435.88;4977507;28;20401;-72
2023/08/01 03:45:07;;;;;;;22.65;6.80;;;;;;;-145.50;100.00;65435.88;4971369;28;20062;-72
2023/08/01 03:47:33;;;;;;;17.92;7.10;;;;;;;-145.50;100.00;65435.88;4977153;28;20101;-72
2023/08/01 03:50:00;;;;;;;15.63;6.60;;;;;;;-145.50;100.00;65435.88;4977498;28;20170;-72
2023/08/01 03:52:26;;;;;;;12.07;5.97;;;;;;;-145.50;100.00;65435.88;4982440;28;20062;-72
2023/08/01 03:54:54;;;;;;;16.90;6.43;;;;;;;-145.50;100.00;65435.88;4961615;28;20113;-72
2023/08/01 03:57:21;;;;;;;15.27;6.57;;;;;;;-145.50;100.00;65435.88;4966567;28;20050;-72
2023/08/01 03:59:48;;;;;;;14.25;5.25;;;;;;;-145.50;100.00;65435.88;4972884;28;20396;-72
2023/08/01 04:02:14;;;;;;;12.55;5.30;;;;;;;-145.50;100.00;65435.88;4963547;28;20113;-72
2023/08/01 04:04:42;;;;;;;16.60;5.35;;;;;;;-145.50;100.00;65435.88;4966627;28;20053;-72
2023/08/01 04:07:08;;;;;;;14.40;5.75;;;;;;;-145.50;100.00;65435.88;4973826;28;20057;-72
2023/08/01 04:09:35;;;;;;;15.85;5.50;;;;;;;-145.50;100.00;65435.88;4985373;28;20042;-72
2023/08/01 04:12:01;;;;;;;16.63;5.60;;;;;;;-145.50;100.00;65435.88;4976555;28;20617;-72
2023/08/01 04:14:28;;;;;;;14.85;5.90;;;;;;;-145.50;100.00;65435.88;4969795;28;20141;-72
2023/08/01 04:16:55;;;;;;;21.70;5.93;;;;;;;-145.50;100.00;65435.88;4977808;28;20080;-72
2023/08/01 04:19:21;;;;;;;17.55;5.72;;;;;;;-145.50;100.00;65435.88;4979713;28;20055;-72
2023/08/01 04:21:48;;;;;;;19.45;5.65;;;;;;;-145.50;100.00;65435.88;4983485;28;20058;-72
2023/08/01 04:24:14;;;;;;;13.85;5.20;;;;;;;-145.50;100.00;65435.88;4980326;28;20100;-72
2023/08/01 04:26:41;;;;;;;15.25;5.60;;;;;;;-145.50;100.00;65435.88;4979135;28;20086;-72
2023/08/01 04:29:08;;;;;;;15.95;5.95;;;;;;;-145.50;100.00;65435.88;4974364;28;20050;-72
2023/08/01 04:31:34;;;;;;;17.70;6.25;;;;;;;-145.50;100.00;65435.88;4985291;28;20050;-72
2023/08/01 04:34:01;;;;;;;18.73;6.00;;;;;;;-145.50;100.00;65435.88;4970945;28;20554;-72
2023/08/01 04:36:27;;;;;;;20.98;6.80;;;;;;;-145.50;100.00;65435.88;4982226;28;20145;-72
2023/08/01 04:38:54;;;;;;;16.95;6.50;;;;;;;-145.50;100.00;65435.88;4979890;28;20102;-72
2023/08/01 04:41:20;;;;;;;20.45;7.05;;;;;;;-145.50;100.00;65435.88;4976916;28;20081;-72
2023/08/01 04:43:47;;;;;;;14.18;5.95;;;;;;;-145.50;100.00;65435.88;4984484;28;20495;-72
2023/08/01 04:46:13;;;;;;;19.65;6.65;;;;;;;-145.50;100.00;65435.88;4982735;28;20069;-72
2023/08/01 04:48:41;;;;;;;14.88;5.88;;;;;;;-145.50;100.00;65435.88;4988818;28;20342;-72
2023/08/01 04:51:08;;;;;;;15.18;6.03;;;;;;;-145.50;100.00;65435.88;4963432;28;20055;-72
2023/08/01 04:53:34;;;;;;;15.77;5.88;;;;;;;-145.50;100.00;65435.88;4983029;28;20046;-73
2023/08/01 04:56:01;;;;;;;18.30;6.55;;;;;;;-145.50;100.00;65435.88;4982221;28;20050;-74
2023/08/01 04:58:27;;;;;;;17.80;6.00;;;;;;;-145.50;100.00;65435.88;4983762;28;20042;-73
2023/08/01 05:00:54;;;;;;;13.73;6.20;;;;;;;-145.50;100.00;65435.88;4989416;28;20432;-74
2023/08/01 05:03:20;;;;;;;18.08;6.45;;;;;;;-145.50;100.00;65435.88;4981145;28;20085;-74
2023/08/01 05:05:47;;;;;;;14.40;5.95;;;;;;;-145.50;100.00;65435.88;4979974;28;20210;-74
2023/08/01 05:08:13;;;;;;;14.93;5.97;;;;;;;-145.50;100.00;65435.88;4977392;28;20168;-73
2023/08/01 05:10:40;;;;;;;16.90;5.60;;;;;;;-145.50;100.00;65435.88;4982134;28;20190;-73
2023/08/01 05:13:06;;;;;;;16.33;5.45;;;;;;;-145.50;100.00;65435.88;4970955;28;20483;-73
2023/08/01 05:15:33;;;;;;;11.98;5.30;;;;;;;-145.50;100.00;65435.88;4981492;28;20050;-73
2023/08/01 05:17:59;;;;;;;10.05;4.88;;;;;;;-145.50;100.00;65435.88;4988578;28;20141;-73
2023/08/01 05:20:30;;;;;;;18.40;5.88;;;;;;;-145.50;100.00;65435.88;4962676;28;20173;-73
2023/08/01 05:22:58;;;;;;;15.82;5.90;;;;;;;-145.50;100.00;65435.88;4974379;28;20149;-73
2023/08/01 05:25:25;;;;;;;14.18;5.38;;;;;;;-145.50;100.00;65435.88;4976906;28;20074;-73
2023/08/01 05:27:52;;;;;;;14.70;5.63;;;;;;;-145.50;100.00;65435.88;4987886;28;20057;-73
2023/08/01 05:30:19;;;;;;;14.95;6.85;;;;;;;-145.50;100.00;65435.88;4987952;28;20578;-74
2023/08/01 05:32:46;;;;;;;16.88;6.30;;;;;;;-145.50;100.00;65435.88;4979965;28;20124;-73
2023/08/01 05:35:13;;;;;;;15.98;6.82;;;;;;;-145.50;100.00;65435.88;4983506;28;20145;-73
2023/08/01 05:37:40;;;;;;;14.48;5.90;;;;;;;-145.50;100.00;65435.88;4975185;28;20046;-73
2023/08/01 05:40:07;;;;;;;17.20;6.10;;;;;;;-145.50;100.00;65435.88;4986913;28;20104;-72
2023/08/01 05:42:34;;;;;;;18.70;6.32;;;;;;;-145.50;100.00;65435.88;4981929;28;20054;-72
2023/08/01 05:45:00;;;;;;;15.75;7.18;;;;;;;-145.50;100.00;65435.88;4984490;28;20058;-72
2023/08/01 05:47:27;;;;;;;18.67;6.88;;;;;;;-145.50;100.00;65435.88;4987147;28;20137;-72
2023/08/01 05:49:53;;;;;;;16.55;6.53;;;;;;;-145.50;100.00;65435.88;4976457;28;20062;-72
2023/08/01 05:52:20;;;;;;;17.45;5.68;;;;;;;-145.50;100.00;65435.88;4984770;28;20060;-72
2023/08/01 05:54:46;;;;;;;16.13;6.95;;;;;;;-145.50;100.00;65435.88;4979669;28;20057;-73
2023/08/01 05:57:13;;;;;;;19.20;6.38;;;;;;;-145.50;100.00;65435.88;4988296;28;20054;-73
2023/08/01 05:59:40;;;;;;;13.32;6.10;;;;;;;-145.50;100.00;65435.88;4982704;28;20561;-72
2023/08/01 06:02:06;;;;;;;13.32;6.65;;;;;;;-145.50;100.00;65435.88;4984998;28;20054;-72
2023/08/01 06:04:33;;;;;;;14.85;6.13;;;;;;;-145.50;100.00;65435.88;4982144;28;20436;-72
2023/08/01 06:06:59;;;;;;;17.77;6.35;;;;;;;-145.50;100.00;65435.88;4981133;28;20515;-72
2023/08/01 06:09:26;;;;;;;12.90;5.82;;;;;;;-145.50;100.00;65435.88;4993024;28;20050;-72
2023/08/01 06:11:53;;;;;;;16.75;5.93;;;;;;;-145.50;100.00;65435.88;4984839;28;20042;-72
2023/08/01 06:14:19;;;;;;;14.48;5.57;;;;;;;-145.50;100.00;65435.88;4990342;28;20423;-73
2023/08/01 06:16:45;;;;;;;14.57;6.47;;;;;;;-145.50;100.00;65435.88;4972149;28;20082;-72
2023/08/01 06:19:12;;;;;;;19.90;6.03;;;;;;;-145.50;100.00;65435.88;4984019;28;20539;-73
2023/08/01 06:21:39;;;;;;;16.33;6.90;;;;;;;-145.50;100.00;65435.88;4998382;28;20054;-72
2023/08/01 06:24:05;;;;;;;15.55;6.30;;;;;;;-145.50;100.00;65435.88;4970996;28;20054;-72
2023/08/01 06:26:32;;;;;;;13.80;5.97;;;;;;;-145.50;100.00;65435.88;4987776;28;20138;-72
2023/08/01 06:28:58;;;;;;;16.77;6.13;;;;;;;-145.50;100.00;65435.88;4981638;28;20137;-72
2023/08/01 06:31:25;;;;;;;14.55;5.90;;;;;;;-145.50;100.00;65435.88;4983937;28;20042;-72
2023/08/01 06:33:52;;;;;;;15.27;5.97;;;;;;;-145.50;100.00;65435.88;4982082;28;20062;-71
2023/08/01 06:36:18;;;;;;;12.63;4.97;;;;;;;-145.50;100.00;65435.88;4988483;28;20153;-72
2023/08/01 06:38:46;;;;;;;17.13;6.18;;;;;;;-145.50;100.00;65435.88;4989745;28;20050;-72
2023/08/01 06:41:12;;;;;;;10.18;4.85;;;;;;;-145.50;100.00;65435.88;4983404;28;20054;-74
2023/08/01 06:43:39;;;;;;;13.60;5.68;;;;;;;-145.50;100.00;65435.88;4985854;28;20050;-72
2023/08/01 06:46:05;;;;;;;15.27;5.75;;;;;;;-145.50;100.00;65435.88;4978235;28;20058;-72
2023/08/01 06:48:35;;;;;;;14.32;5.10;;;;;;;-145.50;100.00;65435.88;4981250;28;20094;-72
2023/08/01 06:51:05;;;;;;;17.80;5.13;;;;;;;-145.50;100.00;65435.88;4982399;28;20054;-72
2023/08/01 06:53:31;;;;;;;14.15;5.03;;;;;;;-145.50;100.00;65435.88;4963257;28;20516;-72
2023/08/01 06:55:58;;;;;;;15.63;5.38;;;;;;;-145.50;100.00;65435.88;4987208;28;20073;-72
2023/08/01 06:58:24;;;;;;;12.65;4.47;;;;;;;-145.50;100.00;65435.88;4978963;28;20077;-72
2023/08/01 07:00:51;;;;;;;10.98;5.03;;;;;;;-145.50;100.00;65435.88;4981285;28;20060;-72
2023/08/01 07:03:18;;;;;;;12.32;4.63;;;;;;;-145.50;100.00;65435.88;4982757;28;20058;-72
2023/08/01 07:05:44;;;;;;;13.18;4.47;;;;;;;-145.50;100.00;65435.88;4974554;28;20113;-72
2023/08/01 07:08:11;;;;;;;13.32;5.22;;;;;;;-145.50;100.00;65435.88;4981056;28;20054;-72
2023/08/01 07:10:38;;;;;;;12.30;4.90;;;;;;;-145.50;100.00;65435.88;4993194;28;20054;-72
2023/08/01 07:13:04;;;;;;;13.57;4.57;;;;;;;-145.50;100.00;65435.88;4963209;28;20054;-72
2023/08/01 07:15:32;;;;;;;11.48;4.45;;;;;;;-145.50;100.00;65435.88;4980646;28;20053;-72
2023/08/01 07:17:59;;;;;;;14.77;4.53;;;;;;;-145.50;100.00;65435.88;4977918;28;20069;-72
2023/08/01 07:20:25;;;;;;;13.82;4.57;;;;;;;-145.50;100.00;65435.88;4976244;28;20506;-72
2023/08/01 07:22:52;;;;;;;12.50;4.45;;;;;;;-145.50;100.00;65435.88;4988824;28;20066;-72
2023/08/01 07:25:19;;;;;;;11.57;3.83;;;;;;;-145.50;100.00;65435.88;4966770;28;20046;-72
2023/08/01 07:27:46;;;;;;;16.30;4.78;;;;;;;-145.50;100.00;65435.88;4971531;28;20105;-72
2023/08/01 07:30:12;;;;;;;8.50;3.35;;;;;;;-145.50;100.00;65435.88;4984608;28;20535;-73
2023/08/01 07:32:39;;;;;;;13.18;3.25;;;;;;;-145.50;100.00;65435.88;4973968;28;20046;-73
2023/08/01 07:35:06;;;;;;;14.43;3.53;;;;;;;-145.50;100.00;65435.88;4988471;28;20491;-73
2023/08/01 07:37:37;;;;;;;9.13;3.70;;;;;;;-145.50;100.00;65435.88;4983145;28;20546;-72
2023/08/01 07:40:05;;;;;;;11.38;2.65;;;;;;;-145.50;100.00;65435.88;4967333;28;20077;-72
2023/08/01 07:42:32;;;;;;;9.25;3.97;;;;;;;-145.50;100.00;65435.88;4976276;28;20424;-72
2023/08/01 07:44:59;;;;;;;11.73;3.25;;;;;;;-145.50;100.00;65435.88;4982867;28;20050;-73
2023/08/01 07:47:25;;;;;;;11.48;3.13;;;;;;;-145.50;100.00;65435.88;4964629;28;20105;-72
2023/08/01 07:49:52;;;;;;;11.80;3.35;;;;;;;-145.50;100.00;65435.88;4982858;28;20056;-72
2023/08/01 07:52:18;;;;;;;13.75;3.35;;;;;;;-145.50;100.00;65435.88;4974098;28;20547;-71
2023/08/01 07:54:45;;;;;;;12.18;2.90;;;;;;;-145.50;100.00;65435.88;4963606;28;20066;-72
2023/08/01 07:57:12;;;;;;;7.75;2.90;;;;;;;-145.50;100.00;65435.88;4987560;28;20050;-71
2023/08/01 07:59:38;;;;;;;9.57;3.33;;;;;;;-145.50;100.00;65435.88;4982785;28;20110;-71
2023/08/01 08:02:05;;;;;;;8.80;3.38;;;;;;;-145.50;100.00;65435.88;4958179;28;20054;-71
2023/08/01 08:04:31;;;;;;;12.00;2.90;;;;;;;-145.50;100.00;65435.88;4996413;28;20076;-72
2023/08/01 08:06:59;;;;;;;10.23;3.15;;;;;;;-145.50;100.00;65435.88;4961825;28;20061;-71
2023/08/01 08:09:27;;;;;;;9.63;3.55;;;;;;;-145.50;100.00;65435.88;4970424;28;20567;-71
2023/08/01 08:11:53;;;;;;;9.83;3.27;;;;;;;-145.50;100.00;65435.88;4963882;28;20062;-71
2023/08/01 08:14:23;;;;;;;14.70;3.03;;;;;;;-145.50;100.00;65435.88;4988587;28;20110;-71
2023/08/01 08:16:50;;;;;;;11.68;3.35;;;;;;;-145.50;100.00;65435.88;4981760;28;20128;-71
2023/08/01 08:19:17;;;;;;;10.90;3.17;;;;;;;-145.50;100.00;65435.88;4986789;28;20042;-72
2023/08/01 08:21:43;;;;;;;8.85;2.50;;;;;;;-145.50;100.00;65435.88;4990321;28;20134;-72
2023/08/01 08:24:10;;;;;;;8.57;3.03;;;;;;;-145.50;100.00;65435.88;4985133;28;20054;-72
2023/08/01 08:26:39;;;;;;;8.90;3.10;;;;;;;-145.50;100.00;65435.88;4978843;28;20042;-72
2023/08/01 08:29:06;;;;;;;9.73;2.92;;;;;;;-145.50;100.00;65435.88;4989394;28;20049;-73
2023/08/01 08:31:32;;;;;;;13.88;3.70;;;;;;;-145.50;100.00;65435.88;4998108;28;20066;-72
2023/08/01 08:33:59;;;;;;;7.53;2.88;;;;;;;-145.50;100.00;65435.88;4987311;28;20081;-72
2023/08/01 08:36:25;;;;;;;6.70;2.72;;;;;;;-145.50;100.00;65435.88;4988226;28;20522;-72
2023/08/01 08:38:52;;;;;;;12.70;3.35;;;;;;;-145.50;100.00;65435.88;4976680;28;20101;-72
2023/08/01 08:41:26;;;;;;;8.82;3.00;;;;;;;-145.50;100.00;65435.88;4989423;28;20064;-72
2023/08/01 08:43:57;;;;;;;6.47;2.60;;;;;;;-145.50;100.00;65435.88;4994791;28;20126;-72
2023/08/01 08:46:29;;;;;;;10.82;2.80;;;;;;;-145.50;100.00;65435.88;4988504;28;20084;-72
2023/08/01 08:48:57;;;;;;;10.32;2.70;;;;;;;-145.50;100.00;65435.88;4990609;28;20415;-72
2023/08/01 08:51:26;;;;;;;6.47;2.85;;;;;;;-145.50;100.00;65435.88;4972751;28;20054;-72
2023/08/01 08:53:54;;;;;;;10.15;2.97;;;;;;;-145.50;100.00;65435.88;4992057;28;20553;-72
2023/08/01 08:56:22;;;;;;;7.07;2.83;;;;;;;-145.50;100.00;65435.88;4989602;28;20676;-74
2023/08/01 08:58:49;;;;;;;8.93;2.85;;;;;;;-145.50;100.00;65435.88;4992845;28;20490;-72
2023/08/01 09:01:17;;;;;;;10.57;2.53;;;;;;;-145.50;100.00;65435.88;4976041;28;20065;-72
2023/08/01 09:03:44;;;;;;;6.25;2.33;;;;;;;-145.50;100.00;65435.88;4968155;28;20109;-71
2023/08/01 09:06:23;;;;;;;8.38;2.42;;;;;;;-145.50;100.00;65435.88;4992022;28;20050;-71
2023/08/01 09:08:55;;;;;;;10.48;2.40;;;;;;;-145.50;100.00;65435.88;4988643;28;20204;-72
2023/08/01 09:11:21;;;;;;;5.82;2.00;;;;;;;-145.50;100.00;65435.88;4996828;28;20066;-72
2023/08/01 09:13:50;;;;;;;6.20;2.15;;;;;;;-145.50;100.00;65435.88;4982531;28;20057;-71
2023/08/01 09:16:16;;;;;;;6.85;2.30;;;;;;;-145.50;100.00;65435.88;4991482;28;20141;-72
2023/08/01 09:18:51;;;;;;;6.18;2.15;;;;;;;-145.50;100.00;65435.88;4993655;28;20078;-73
2023/08/01 09:21:19;;;;;;;7.07;1.95;;;;;;;-145.50;100.00;65435.88;4992826;28;20053;-72
2023/08/01 09:23:46;;;;;;;5.10;1.80;;;;;;;-145.50;100.00;65435.88;5008689;28;20050;-72
2023/08/01 09:26:20;;;;;;;7.88;2.20;;;;;;;-145.50;100.00;65435.88;5003901;28;20055;-72
2023/08/01 09:28:56;;;;;;;6.90;1.90;;;;;;;-145.50;100.00;65435.88;5012733;28;20058;-72
2023/08/01 09:31:31;;;;;;;5.78;1.90;;;;;;;-145.50;100.00;65435.88;4986749;28;20434;-72
2023/08/01 09:33:58;;;;;;;6.03;1.65;;;;;;;-145.50;100.00;65435.88;4979085;28;20046;-71
2023/08/01 09:36:25;;;;;;;6.18;2.17;;;;;;;-145.50;100.00;65435.88;4986746;28;20058;-72
2023/08/01 09:38:58;;;;;;;5.50;1.70;;;;;;;-145.50;100.00;65435.88;4993066;28;20537;-72
2023/08/01 09:41:25;;;;;;;5.93;1.95;;;;;;;-145.50;100.00;65435.88;4992360;28;20047;-71
2023/08/01 09:43:52;;;;;;;6.13;1.92;;;;;;;-145.50;100.00;65435.88;4977207;28;20118;-72
2023/08/01 09:46:18;;;;;;;4.97;1.73;;;;;;;-145.50;100.00;65435.88;4970484;28;20050;-71
2023/08/01 09:48:45;;;;;;;3.35;1.30;;;;;;;-145.50;100.00;65435.88;4967411;28;20135;-72
2023/08/01 09:51:17;;;;;;;6.57;1.67;;;;;;;-145.50;100.00;65435.88;4985328;28;20435;-73
2023/08/01 09:53:50;;;;;;;6.63;1.77;;;;;;;-145.50;100.00;65435.88;4965398;28;20058;-71
2023/08/01 09:56:23;;;;;;;6.70;1.70;;;;;;;-145.50;100.00;65435.88;4989761;28;20076;-72
2023/08/01 09:58:51;;;;;;;6.72;1.90;;;;;;;-145.50;100.00;65435.88;4984049;28;20050;-71
2023/08/01 10:01:19;;;;;;;;;;;;;;;-145.50;100.00;65435.88;4961996;28;20050;-71
2023/08/01 10:03:48;;;;;;;6.25;1.60;;;;;;;-145.50;100.00;65435.88;4986616;28;19972;-72
2023/08/01 10:06:23;;;;;;;5.68;1.75;;;;;;;-145.50;100.00;65435.88;4962843;28;20141;-71
2023/08/01 10:08:52;;;;;;;7.28;1.95;;;;;;;-145.50;100.00;65435.88;4988607;28;20053;-71
2023/08/01 10:11:21;;;;;;;5.60;1.80;;;;;;;-145.50;100.00;65435.88;4966518;28;20101;-71
2023/08/01 10:13:47;;;;;;;5.97;2.00;;;;;;;-145.50;100.00;65435.88;4983745;28;20046;-71
2023/08/01 10:16:16;;;;;;;6.00;1.83;;;;;;;-145.50;100.00;65435.88;4983881;28;20062;-71
2023/08/01 10:18:43;;;;;;;8.35;2.10;;;;;;;-145.50;100.00;65435.88;4984830;28;20054;-71
2023/08/01 10:21:13;;;;;;;5.67;1.90;;;;;;;-145.50;100.00;65435.88;4971783;28;20450;-70
2023/08/01 10:23:41;;;;;;;5.93;2.00;;;;;;;-145.50;100.00;65435.88;4981049;28;20284;-71
2023/08/01 10:26:09;;;;;;;9.20;1.97;;;;;;;-145.50;100.00;65435.88;4988908;28;20082;-72
2023/08/01 10:28:41;;;;;;;6.40;1.92;;;;;;;-145.50;100.00;65435.88;4976846;28;20397;-71
2023/08/01 10:31:09;;;;;;;6.47;1.90;;;;;;;-145.50;100.00;65435.88;4974770;28;20054;-72
2023/08/01 10:33:37;;;;;;;6.57;2.17;;;;;;;-145.50;100.00;65435.88;4975396;28;20058;-72
2023/08/01 10:36:14;;;;;;;7.60;2.25;;;;;;;-145.50;100.00;65435.88;4983589;28;20131;-71
2023/08/01 10:38:46;;;;;;;6.72;1.92;;;;;;;-145.50;100.00;65435.88;4953359;28;20065;-72
2023/08/01 10:41:27;;;;;;;6.93;2.50;;;;;;;-145.50;100.00;65435.88;4971932;28;20054;-72
2023/08/01 10:44:15;;;;;;;10.02;1.90;;;;;;;-145.50;100.00;65435.88;4961915;28;20081;-72
2023/08/01 10:46:49;;;;;;;5.55;1.98;;;;;;;-145.50;100.00;65435.88;4981868;28;20576;-72
2023/08/01 10:49:17;;;;;;;5.50;1.83;;;;;;;-145.50;100.00;65435.88;4989343;28;20629;-72
2023/08/01 10:51:44;;;;;;;4.88;2.50;;;;;;;-145.50;100.00;65435.88;4982905;28;20108;-72
2023/08/01 10:54:19;;;;;;;6.53;2.47;;;;;;;-145.50;100.00;65435.88;4969454;28;20254;-73
2023/08/01 10:56:46;;;;;;;6.57;1.95;;;;;;;-145.50;100.00;65435.88;4981949;28;20125;-72
2023/08/01 10:59:16;;;;;;;6.78;2.10;;;;;;;-145.50;100.00;65435.88;4987864;28;20101;-72
2023/08/01 11:01:44;;;;;;;8.38;2.58;;;;;;;-145.50;100.00;65435.88;4990410;28;20058;-72
2023/08/01 11:04:16;;;;;;;10.40;2.53;;;;;;;-145.50;100.00;65435.88;4981736;28;20531;-72
2023/08/01 11:06:47;;;;;;;6.40;2.10;;;;;;;-145.50;100.00;65435.88;4985411;28;20054;-72
2023/08/01 11:09:19;;;;;;;6.63;2.25;;;;;;;-145.50;100.00;65435.88;4977094;28;20120;-72
2023/08/01 11:11:49;;;;;;;5.93;1.80;;;;;;;-145.50;100.00;65435.88;4989209;28;20054;-71
2023/08/01 11:14:19;;;;;;;5.95;2.25;;;;;;;-145.50;100.00;65435.88;4981075;28;20054;-72
2023/08/01 11:16:45;;;;;;;8.15;2.00;;;;;;;-145.50;100.00;65435.88;4971715;28;20105;-72
2023/08/01 11:19:24;;;;;;;7.95;2.05;;;;;;;-145.50;100.00;65435.88;4964048;28;20757;-72
2023/08/01 11:21:56;;;;;;;8.80;2.10;;;;;;;-145.50;100.00;65435.88;4979311;28;20274;-72
2023/08/01 11:24:24;;;;;;;4.63;1.90;;;;;;;-145.50;100.00;65435.88;4989501;28;20132;-72
2023/08/01 11:26:53;;;;;;;5.60;1.98;;;;;;;-145.50;100.00;65435.88;4982531;28;20046;-71
2023/08/01 11:29:20;;;;;;;5.72;1.90;;;;;;;-145.50;100.00;65435.88;4987329;28;20108;-72
2023/08/01 11:31:59;;;;;;;4.78;1.70;;;;;;;-145.50;100.00;65435.88;4977726;28;20050;-72
2023/08/01 11:34:27;;;;;;;6.90;1.92;;;;;;;-145.50;100.00;65435.88;4985167;28;20580;-71
2023/08/01 11:36:54;;;;;;;4.47;1.88;;;;;;;-145.50;100.00;65435.88;4948827;28;20057;-71
2023/08/01 11:39:22;;;;;;;9.93;2.28;;;;;;;-145.50;100.00;65435.88;4967679;28;20046;-72